createdAt,value
2023-05-03T00:01:48.013Z,4
2023-05-03T00:11:50.628Z,3.9
2023-05-03T00:21:53.157Z,3.9
2023-05-03T00:31:55.214Z,3.7
2023-05-03T00:41:57.518Z,3.5
2023-05-03T00:51:59.371Z,3.5
2023-05-03T01:02:02.001Z,3.5
2023-05-03T01:12:03.519Z,3.8
2023-05-03T01:22:05.405Z,3.8
2023-05-03T01:42:09.252Z,3.4
2023-05-03T01:42:31.192Z,3.4
2023-05-03T02:02:21.216Z,3.1
2023-05-03T02:12:23.913Z,3.1
2023-05-03T02:22:25.962Z,3.1
2023-05-03T02:32:28.158Z,3.2
2023-05-03T02:42:30.681Z,2.9
2023-05-03T03:22:38.448Z,2.4
2023-05-03T03:42:42.485Z,2.4
2023-05-03T03:52:45.156Z,2.6
2023-05-03T04:12:49.194Z,2.7
2023-05-03T04:22:51.133Z,2.7
2023-05-03T04:32:53.214Z,2.7
2023-05-03T04:42:55.305Z,2.7
2023-05-03T05:02:59.456Z,3.7
2023-05-03T05:13:01.090Z,3.6
2023-05-03T05:23:03.064Z,4.6
2023-05-03T05:43:07.782Z,4.3
2023-05-03T06:03:12.298Z,4.9
2023-05-03T06:13:14.551Z,6
2023-05-03T06:23:16.198Z,6.9
2023-05-03T06:33:17.896Z,7.3
2023-05-03T06:43:19.859Z,7.8
2023-05-03T06:53:22.159Z,7.8
2023-05-03T07:03:24.921Z,7.8
2023-05-03T07:13:26.792Z,8.5
2023-05-03T07:23:28.626Z,8.3
2023-05-03T07:33:31.053Z,8.4
2023-05-03T07:53:35.787Z,9
2023-05-03T08:13:39.904Z,9.8
2023-05-03T08:23:42.129Z,9.4
2023-05-03T08:43:47.092Z,10.5
2023-05-03T08:53:49.374Z,10.6
2023-05-03T09:03:51.951Z,10.2
2023-05-03T09:13:53.727Z,11.3
2023-05-03T09:23:55.966Z,10.9
2023-05-03T09:33:57.823Z,11.5
2023-05-03T09:44:00.287Z,11.6
2023-05-03T09:54:02.562Z,11.4
2023-05-03T10:04:04.717Z,11.5
2023-05-03T10:14:06.953Z,11.7
2023-05-03T10:24:09.223Z,12.4
2023-05-03T10:34:11.264Z,12.2
2023-05-03T10:44:13.566Z,12.4
2023-05-03T11:34:24.005Z,13.6
2023-05-03T11:44:26.206Z,13.7
2023-05-03T11:54:28.128Z,14.2
2023-05-03T12:04:30.035Z,13.8
2023-05-03T12:14:33.012Z,14.3
2023-05-03T12:24:34.671Z,13.8
2023-05-03T12:34:37.032Z,13.9
2023-05-03T12:44:41.643Z,14.5
2023-05-03T12:54:42.049Z,14.5
2023-05-03T13:04:57.531Z,14.6
2023-05-03T13:14:45.733Z,14.5
2023-05-03T13:24:48.119Z,14.9
2023-05-03T13:34:50.495Z,15.3
2023-05-03T13:44:53.165Z,14.7
2023-05-03T13:54:55.438Z,15.3
2023-05-03T14:04:57.753Z,15
2023-05-03T14:25:02.313Z,15.4
2023-05-03T14:35:04.257Z,15.6
2023-05-03T14:45:06.788Z,15.5
2023-05-03T15:05:10.421Z,15.5
2023-05-03T15:15:12.171Z,15.3
2023-05-03T15:25:13.844Z,15.7
2023-05-03T15:35:15.481Z,16.5
2023-05-03T15:45:17.254Z,15.8
2023-05-03T15:55:19.125Z,15.4
2023-05-03T16:05:21.235Z,16.2
2023-05-03T16:15:22.996Z,16
2023-05-03T16:25:25.030Z,15.4
2023-05-03T16:35:27.115Z,15.2
2023-05-03T16:45:29.846Z,15
2023-05-03T16:55:31.521Z,15.1
2023-05-03T17:15:35.717Z,15.1
2023-05-03T17:25:37.390Z,15
2023-05-03T17:35:39.478Z,14.8
2023-05-03T17:45:41.235Z,14.6
2023-05-03T17:55:43.542Z,14.4
2023-05-03T18:05:45.978Z,14.4
2023-05-03T18:15:48.378Z,14.3
2023-05-03T18:25:50.721Z,13.9
2023-05-03T18:35:52.843Z,13.7
2023-05-03T18:45:54.654Z,13.7
2023-05-03T18:55:57.125Z,13.2
2023-05-03T19:05:58.932Z,12.9
2023-05-03T19:16:00.984Z,12.6
2023-05-03T19:26:03.303Z,12.4
2023-05-03T19:36:05.564Z,12.3
2023-05-03T19:46:07.624Z,12
2023-05-03T19:56:09.428Z,11.7
2023-05-03T20:06:11.673Z,11.5
2023-05-03T20:16:13.614Z,11.4
2023-05-03T20:26:15.565Z,11.2
2023-05-03T20:36:17.455Z,11.1
2023-05-03T20:46:19.334Z,10.9
2023-05-03T20:56:21.262Z,10.8
2023-05-03T21:06:23.709Z,10.7
2023-05-03T21:36:30.665Z,10.1
2023-05-03T21:46:33.218Z,10
2023-05-03T21:56:35.580Z,9.7
2023-05-03T22:06:37.406Z,9.5
2023-05-03T22:26:42.194Z,9.3
